sensor_id;sensor_type;location;lat;lon;timestamp;pressure;altitude;pressure_sealevel;temperature;humidity
36726;BME280;44936;52.086;5.150;2024-02-14T00:00:09;102041.19;;;9.15;100.00
36726;BME280;44936;52.086;5.150;2024-02-14T00:02:43;102044.91;;;9.23;100.00
36726;BME280;44936;52.086;5.150;2024-02-14T00:05:08;102044.88;;;9.21;100.00
36726;BME280;44936;52.086;5.150;2024-02-14T00:07:38;102045.78;;;9.23;100.00
36726;BME280;44936;52.086;5.150;2024-02-14T00:10:05;102031.69;;;9.18;100.00
36726;BME280;44936;52.086;5.150;2024-02-14T00:12:32;102031.22;;;9.33;100.00
36726;BME280;44936;52.086;5.150;2024-02-14T00:14:57;102030.47;;;9.37;100.00
36726;BME280;44936;52.086;5.150;2024-02-14T00:17:23;102025.03;;;9.29;100.00
36726;BME280;44936;52.086;5.150;2024-02-14T00:19:48;102028.88;;;9.44;100.00
36726;BME280;44936;52.086;5.150;2024-02-14T00:22:14;102025.34;;;9.42;100.00
36726;BME280;44936;52.086;5.150;2024-02-14T00:24:39;102014.59;;;9.31;100.00
36726;BME280;44936;52.086;5.150;2024-02-14T00:27:04;102023.75;;;9.47;100.00
36726;BME280;44936;52.086;5.150;2024-02-14T00:29:30;102021.81;;;9.40;100.00
36726;BME280;44936;52.086;5.150;2024-02-14T00:31:55;101989.38;;;9.34;100.00
36726;BME280;44936;52.086;5.150;2024-02-14T00:34:20;102008.75;;;9.41;100.00
36726;BME280;44936;52.086;5.150;2024-02-14T00:36:46;102015.03;;;9.48;100.00
36726;BME280;44936;52.086;5.150;2024-02-14T00:39:11;102008.75;;;9.41;100.00
36726;BME280;44936;52.086;5.150;2024-02-14T00:41:37;101995.88;;;9.49;100.00
36726;BME280;44936;52.086;5.150;2024-02-14T00:44:02;102004.47;;;9.45;100.00
36726;BME280;44936;52.086;5.150;2024-02-14T00:46:28;102032.59;;;9.52;100.00
36726;BME280;44936;52.086;5.150;2024-02-14T00:48:54;102026.88;;;9.67;100.00
36726;BME280;44936;52.086;5.150;2024-02-14T00:51:20;102015.44;;;9.63;100.00
36726;BME280;44936;52.086;5.150;2024-02-14T00:53:46;102018.13;;;9.66;100.00
36726;BME280;44936;52.086;5.150;2024-02-14T00:56:11;102002.19;;;9.57;100.00
36726;BME280;44936;52.086;5.150;2024-02-14T00:58:36;102010.75;;;9.51;100.00
36726;BME280;44936;52.086;5.150;2024-02-14T01:01:05;102020.53;;;9.57;100.00
36726;BME280;44936;52.086;5.150;2024-02-14T01:03:31;102027.34;;;9.52;100.00
36726;BME280;44936;52.086;5.150;2024-02-14T01:05:56;102004.91;;;9.61;100.00
36726;BME280;44936;52.086;5.150;2024-02-14T01:08:22;102004.56;;;9.48;100.00
36726;BME280;44936;52.086;5.150;2024-02-14T01:10:47;102015.28;;;9.57;100.00
36726;BME280;44936;52.086;5.150;2024-02-14T01:13:16;102004.81;;;9.57;100.00
36726;BME280;44936;52.086;5.150;2024-02-14T01:15:41;102009.28;;;9.62;100.00
36726;BME280;44936;52.086;5.150;2024-02-14T01:18:07;102005.06;;;9.68;100.00
36726;BME280;44936;52.086;5.150;2024-02-14T01:20:32;102011.22;;;9.70;100.00
36726;BME280;44936;52.086;5.150;2024-02-14T01:22:57;102015.81;;;9.78;100.00
36726;BME280;44936;52.086;5.150;2024-02-14T01:25:22;102019.44;;;9.83;100.00
36726;BME280;44936;52.086;5.150;2024-02-14T01:27:48;101984.66;;;9.54;100.00
36726;BME280;44936;52.086;5.150;2024-02-14T01:30:14;102011.97;;;9.64;100.00
36726;BME280;44936;52.086;5.150;2024-02-14T01:32:39;102005.56;;;9.87;100.00
36726;BME280;44936;52.086;5.150;2024-02-14T01:35:05;102019.41;;;9.82;100.00
36726;BME280;44936;52.086;5.150;2024-02-14T01:37:31;102016.84;;;9.85;100.00
36726;BME280;44936;52.086;5.150;2024-02-14T01:39:56;101998.38;;;9.80;100.00
36726;BME280;44936;52.086;5.150;2024-02-14T01:42:21;101995.03;;;9.86;100.00
36726;BME280;44936;52.086;5.150;2024-02-14T01:44:47;102009.94;;;9.88;100.00
36726;BME280;44936;52.086;5.150;2024-02-14T01:47:13;102010.09;;;9.94;100.00
36726;BME280;44936;52.086;5.150;2024-02-14T01:49:38;102020.66;;;9.98;100.00
36726;BME280;44936;52.086;5.150;2024-02-14T01:52:05;102013.66;;;9.97;100.00
36726;BME280;44936;52.086;5.150;2024-02-14T01:54:31;102009.41;;;10.02;100.00
36726;BME280;44936;52.086;5.150;2024-02-14T01:56:57;102019.16;;;10.07;100.00
36726;BME280;44936;52.086;5.150;2024-02-14T01:59:24;102024.91;;;9.92;100.00
36726;BME280;44936;52.086;5.150;2024-02-14T02:01:49;102022.47;;;10.00;100.00
36726;BME280;44936;52.086;5.150;2024-02-14T02:04:16;102000.31;;;9.87;100.00
36726;BME280;44936;52.086;5.150;2024-02-14T02:06:42;102020.75;;;10.01;100.00
36726;BME280;44936;52.086;5.150;2024-02-14T02:09:07;102021.59;;;10.00;100.00
36726;BME280;44936;52.086;5.150;2024-02-14T02:11:48;102016.28;;;9.98;100.00
36726;BME280;44936;52.086;5.150;2024-02-14T02:14:14;102028.91;;;10.13;100.00
36726;BME280;44936;52.086;5.150;2024-02-14T02:16:39;102008.56;;;10.03;100.00
36726;BME280;44936;52.086;5.150;2024-02-14T02:19:04;102022.78;;;10.14;100.00
36726;BME280;44936;52.086;5.150;2024-02-14T02:21:33;102031.00;;;10.26;100.00
36726;BME280;44936;52.086;5.150;2024-02-14T02:24:00;102021.19;;;10.19;100.00
36726;BME280;44936;52.086;5.150;2024-02-14T02:26:26;102035.22;;;10.21;100.00
36726;BME280;44936;52.086;5.150;2024-02-14T02:28:51;102030.81;;;10.20;100.00
36726;BME280;44936;52.086;5.150;2024-02-14T02:31:16;102032.59;;;10.21;100.00
36726;BME280;44936;52.086;5.150;2024-02-14T02:33:42;102037.13;;;10.27;100.00
36726;BME280;44936;52.086;5.150;2024-02-14T02:36:09;102032.69;;;10.24;100.00
36726;BME280;44936;52.086;5.150;2024-02-14T02:38:35;102038.94;;;10.29;100.00
36726;BME280;44936;52.086;5.150;2024-02-14T02:41:02;102019.47;;;10.21;100.00
36726;BME280;44936;52.086;5.150;2024-02-14T02:43:28;102025.69;;;10.25;100.00
36726;BME280;44936;52.086;5.150;2024-02-14T02:45:53;102035.41;;;10.29;100.00
36726;BME280;44936;52.086;5.150;2024-02-14T02:48:19;102045.91;;;10.29;100.00
36726;BME280;44936;52.086;5.150;2024-02-14T02:50:48;102041.91;;;10.44;100.00
36726;BME280;44936;52.086;5.150;2024-02-14T02:53:18;102053.09;;;10.37;100.00
36726;BME280;44936;52.086;5.150;2024-02-14T02:55:43;102035.41;;;10.27;100.00
36726;BME280;44936;52.086;5.150;2024-02-14T02:58:10;102041.50;;;10.26;100.00
36726;BME280;44936;52.086;5.150;2024-02-14T03:00:40;102055.78;;;10.40;100.00
36726;BME280;44936;52.086;5.150;2024-02-14T03:03:08;102050.34;;;10.31;100.00
36726;BME280;44936;52.086;5.150;2024-02-14T03:05:33;102046.31;;;10.45;100.00
36726;BME280;44936;52.086;5.150;2024-02-14T03:07:59;102044.41;;;10.40;100.00
36726;BME280;44936;52.086;5.150;2024-02-14T03:10:25;102046.53;;;10.56;100.00
36726;BME280;44936;52.086;5.150;2024-02-14T03:12:51;102039.13;;;10.38;100.00
36726;BME280;44936;52.086;5.150;2024-02-14T03:15:17;102045.09;;;10.31;100.00
36726;BME280;44936;52.086;5.150;2024-02-14T03:17:44;102045.19;;;10.34;100.00
36726;BME280;44936;52.086;5.150;2024-02-14T03:20:10;102052.31;;;10.41;100.00
36726;BME280;44936;52.086;5.150;2024-02-14T03:22:41;102035.63;;;10.38;100.00
36726;BME280;44936;52.086;5.150;2024-02-14T03:25:13;102051.63;;;10.50;100.00
36726;BME280;44936;52.086;5.150;2024-02-14T03:27:41;102043.47;;;10.36;100.00
36726;BME280;44936;52.086;5.150;2024-02-14T03:30:07;102055.88;;;10.43;100.00
36726;BME280;44936;52.086;5.150;2024-02-14T03:32:32;102040.81;;;10.35;100.00
36726;BME280;44936;52.086;5.150;2024-02-14T03:34:58;102060.50;;;10.55;100.00
36726;BME280;44936;52.086;5.150;2024-02-14T03:37:26;102060.50;;;10.55;100.00
36726;BME280;44936;52.086;5.150;2024-02-14T03:39:51;102055.88;;;10.43;100.00
36726;BME280;44936;52.086;5.150;2024-02-14T03:42:16;102038.53;;;10.50;100.00
36726;BME280;44936;52.086;5.150;2024-02-14T03:44:42;102049.28;;;10.61;100.00
36726;BME280;44936;52.086;5.150;2024-02-14T03:47:07;102059.78;;;10.61;100.00
36726;BME280;44936;52.086;5.150;2024-02-14T03:49:32;102052.91;;;10.67;100.00
36726;BME280;44936;52.086;5.150;2024-02-14T03:51:58;102070.38;;;10.67;100.00
36726;BME280;44936;52.086;5.150;2024-02-14T03:54:24;102067.53;;;10.56;100.00
36726;BME280;44936;52.086;5.150;2024-02-14T03:56:49;102060.47;;;10.54;100.00
36726;BME280;44936;52.086;5.150;2024-02-14T03:59:16;102061.53;;;10.62;100.00
36726;BME280;44936;52.086;5.150;2024-02-14T04:01:46;102071.81;;;10.53;100.00
36726;BME280;44936;52.086;5.150;2024-02-14T04:04:11;102070.38;;;10.67;100.00
36726;BME280;44936;52.086;5.150;2024-02-14T04:06:36;102069.44;;;10.63;100.00
36726;BME280;44936;52.086;5.150;2024-02-14T04:09:01;102087.16;;;10.73;100.00
36726;BME280;44936;52.086;5.150;2024-02-14T04:11:27;102078.94;;;10.58;100.00
36726;BME280;44936;52.086;5.150;2024-02-14T04:13:52;102087.91;;;10.68;100.00
36726;BME280;44936;52.086;5.150;2024-02-14T04:16:21;102086.00;;;10.61;100.00
36726;BME280;44936;52.086;5.150;2024-02-14T04:18:46;102094.00;;;10.67;100.00
36726;BME280;44936;52.086;5.150;2024-02-14T04:21:12;102075.72;;;10.70;100.00
36726;BME280;44936;52.086;5.150;2024-02-14T04:23:37;102096.53;;;10.62;100.00
36726;BME280;44936;52.086;5.150;2024-02-14T04:26:03;102090.47;;;10.65;100.00
36726;BME280;44936;52.086;5.150;2024-02-14T04:28:28;102098.53;;;10.74;100.00
36726;BME280;44936;52.086;5.150;2024-02-14T04:30:53;102096.91;;;10.79;100.00
36726;BME280;44936;52.086;5.150;2024-02-14T04:33:20;102098.38;;;10.68;100.00
36726;BME280;44936;52.086;5.150;2024-02-14T04:35:46;102109.94;;;10.76;100.00
36726;BME280;44936;52.086;5.150;2024-02-14T04:38:12;102119.53;;;10.74;100.00
36726;BME280;44936;52.086;5.150;2024-02-14T04:40:37;102104.50;;;10.67;100.00
36726;BME280;44936;52.086;5.150;2024-02-14T04:43:04;102103.44;;;10.59;100.00
36726;BME280;44936;52.086;5.150;2024-02-14T04:45:29;102116.19;;;10.81;100.00
36726;BME280;44936;52.086;5.150;2024-02-14T04:47:55;102116.19;;;10.81;100.00
36726;BME280;44936;52.086;5.150;2024-02-14T04:50:20;102112.56;;;10.76;100.00
36726;BME280;44936;52.086;5.150;2024-02-14T04:52:45;102118.91;;;10.86;100.00
36726;BME280;44936;52.086;5.150;2024-02-14T04:55:11;102119.69;;;10.80;100.00
36726;BME280;44936;52.086;5.150;2024-02-14T04:57:36;102114.66;;;10.91;100.00
36726;BME280;44936;52.086;5.150;2024-02-14T05:00:03;102125.72;;;10.77;100.00
36726;BME280;44936;52.086;5.150;2024-02-14T05:02:29;102114.44;;;10.80;100.00
36726;BME280;44936;52.086;5.150;2024-02-14T05:04:55;102085.00;;;10.56;100.00
36726;BME280;44936;52.086;5.150;2024-02-14T05:07:20;102133.91;;;10.91;100.00
36726;BME280;44936;52.086;5.150;2024-02-14T05:09:45;102132.09;;;10.87;100.00
36726;BME280;44936;52.086;5.150;2024-02-14T05:12:13;102135.69;;;10.92;100.00
36726;BME280;44936;52.086;5.150;2024-02-14T05:14:38;102136.19;;;10.76;100.00
36726;BME280;44936;52.086;5.150;2024-02-14T05:17:04;102132.91;;;10.86;100.00
36726;BME280;44936;52.086;5.150;2024-02-14T05:19:30;102140.09;;;10.93;100.00
36726;BME280;44936;52.086;5.150;2024-02-14T05:21:55;102110.75;;;10.72;100.00
36726;BME280;44936;52.086;5.150;2024-02-14T05:24:20;102148.25;;;11.05;100.00
36726;BME280;44936;52.086;5.150;2024-02-14T05:26:46;102142.66;;;10.90;100.00
36726;BME280;44936;52.086;5.150;2024-02-14T05:29:12;102154.03;;;10.91;100.00
36726;BME280;44936;52.086;5.150;2024-02-14T05:31:44;102155.13;;;11.00;100.00
36726;BME280;44936;52.086;5.150;2024-02-14T05:34:10;102148.88;;;10.95;100.00
36726;BME280;44936;52.086;5.150;2024-02-14T05:36:35;102144.53;;;10.96;100.00
36726;BME280;44936;52.086;5.150;2024-02-14T05:39:01;102147.19;;;10.97;100.00
36726;BME280;44936;52.086;5.150;2024-02-14T05:41:27;102150.75;;;11.01;100.00
36726;BME280;44936;52.086;5.150;2024-02-14T05:43:52;102133.13;;;10.95;100.00
36726;BME280;44936;52.086;5.150;2024-02-14T05:46:17;102145.31;;;10.92;100.00
36726;BME280;44936;52.086;5.150;2024-02-14T05:48:45;102149.94;;;11.03;100.00
36726;BME280;44936;52.086;5.150;2024-02-14T05:51:14;102144.75;;;11.05;100.00
36726;BME280;44936;52.086;5.150;2024-02-14T05:53:39;102152.50;;;11.00;100.00
36726;BME280;44936;52.086;5.150;2024-02-14T05:56:05;102140.09;;;10.93;100.00
36726;BME280;44936;52.086;5.150;2024-02-14T05:58:30;102155.06;;;10.97;100.00
36726;BME280;44936;52.086;5.150;2024-02-14T06:00:57;102164.56;;;10.92;100.00
36726;BME280;44936;52.086;5.150;2024-02-14T06:03:22;102151.34;;;10.88;100.00
36726;BME280;44936;52.086;5.150;2024-02-14T06:05:48;102149.63;;;10.88;100.00
36726;BME280;44936;52.086;5.150;2024-02-14T06:08:13;102168.38;;;11.05;100.00
36726;BME280;44936;52.086;5.150;2024-02-14T06:10:38;102172.78;;;11.07;100.00
36726;BME280;44936;52.086;5.150;2024-02-14T06:13:04;102178.88;;;11.05;100.00
36726;BME280;44936;52.086;5.150;2024-02-14T06:15:30;102174.34;;;10.99;100.00
36726;BME280;44936;52.086;5.150;2024-02-14T06:17:55;102172.56;;;10.97;100.00
36726;BME280;44936;52.086;5.150;2024-02-14T06:20:20;102177.22;;;11.10;100.00
36726;BME280;44936;52.086;5.150;2024-02-14T06:22:46;102189.31;;;11.03;100.00
36726;BME280;44936;52.086;5.150;2024-02-14T06:25:11;102189.44;;;11.08;100.00
36726;BME280;44936;52.086;5.150;2024-02-14T06:27:36;102187.53;;;11.02;100.00
36726;BME280;44936;52.086;5.150;2024-02-14T06:30:03;102198.00;;;11.01;100.00
36726;BME280;44936;52.086;5.150;2024-02-14T06:32:28;102189.41;;;11.06;100.00
36726;BME280;44936;52.086;5.150;2024-02-14T06:34:53;102195.59;;;11.10;100.00
36726;BME280;44936;52.086;5.150;2024-02-14T06:37:19;102200.75;;;11.05;100.00
36726;BME280;44936;52.086;5.150;2024-02-14T06:39:45;102201.03;;;11.18;100.00
36726;BME280;44936;52.086;5.150;2024-02-14T06:42:10;102197.53;;;11.19;100.00
36726;BME280;44936;52.086;5.150;2024-02-14T06:44:35;102182.50;;;11.12;100.00
36726;BME280;44936;52.086;5.150;2024-02-14T06:47:01;102195.03;;;11.23;100.00
36726;BME280;44936;52.086;5.150;2024-02-14T06:49:26;102190.31;;;11.09;100.00
36726;BME280;44936;52.086;5.150;2024-02-14T06:51:51;102166.09;;;10.83;100.00
36726;BME280;44936;52.086;5.150;2024-02-14T06:54:17;102170.66;;;10.91;100.00
36726;BME280;44936;52.086;5.150;2024-02-14T06:56:44;102157.53;;;10.91;100.00
36726;BME280;44936;52.086;5.150;2024-02-14T06:59:10;102208.09;;;11.22;100.00
36726;BME280;44936;52.086;5.150;2024-02-14T07:01:35;102169.25;;;11.05;100.00
36726;BME280;44936;52.086;5.150;2024-02-14T07:04:00;102181.31;;;10.97;100.00
36726;BME280;44936;52.086;5.150;2024-02-14T07:06:26;102215.06;;;11.20;100.00
36726;BME280;44936;52.086;5.150;2024-02-14T07:08:52;102186.66;;;11.02;100.00
36726;BME280;44936;52.086;5.150;2024-02-14T07:11:18;102178.69;;;10.97;100.00
36726;BME280;44936;52.086;5.150;2024-02-14T07:13:43;102227.63;;;11.33;100.00
36726;BME280;44936;52.086;5.150;2024-02-14T07:16:09;102204.50;;;11.17;100.00
36726;BME280;44936;52.086;5.150;2024-02-14T07:18:34;102228.44;;;11.30;100.00
36726;BME280;44936;52.086;5.150;2024-02-14T07:20:59;102225.00;;;11.33;100.00
36726;BME280;44936;52.086;5.150;2024-02-14T07:23:25;102214.22;;;11.21;100.00
36726;BME280;44936;52.086;5.150;2024-02-14T07:25:51;102197.41;;;11.13;100.00
36726;BME280;44936;52.086;5.150;2024-02-14T07:28:16;102206.41;;;11.24;100.00
36726;BME280;44936;52.086;5.150;2024-02-14T07:30:43;102235.59;;;11.38;100.00
36726;BME280;44936;52.086;5.150;2024-02-14T07:33:08;102228.44;;;11.30;100.00
36726;BME280;44936;52.086;5.150;2024-02-14T07:35:34;102226.13;;;11.44;100.00
36726;BME280;44936;52.086;5.150;2024-02-14T07:37:59;102198.63;;;11.28;100.00
36726;BME280;44936;52.086;5.150;2024-02-14T07:40:25;102196.81;;;11.26;100.00
36726;BME280;44936;52.086;5.150;2024-02-14T07:42:52;102202.84;;;11.22;100.00
36726;BME280;44936;52.086;5.150;2024-02-14T07:45:17;102191.31;;;11.14;100.00
36726;BME280;44936;52.086;5.150;2024-02-14T07:47:43;102211.69;;;11.24;100.00
36726;BME280;44936;52.086;5.150;2024-02-14T07:50:08;102243.66;;;11.45;100.00
36726;BME280;44936;52.086;5.150;2024-02-14T07:52:34;102195.81;;;11.21;100.00
36726;BME280;44936;52.086;5.150;2024-02-14T07:55:01;102236.63;;;11.44;100.00
36726;BME280;44936;52.086;5.150;2024-02-14T07:57:26;102205.72;;;11.31;100.00
36726;BME280;44936;52.086;5.150;2024-02-14T07:59:52;102223.34;;;11.38;100.00
36726;BME280;44936;52.086;5.150;2024-02-14T08:02:19;102223.41;;;11.40;100.00
36726;BME280;44936;52.086;5.150;2024-02-14T08:04:44;102232.28;;;11.46;100.00
36726;BME280;44936;52.086;5.150;2024-02-14T08:07:10;102239.19;;;11.41;100.00
36726;BME280;44936;52.086;5.150;2024-02-14T08:09:35;102212.47;;;11.21;100.00
36726;BME280;44936;52.086;5.150;2024-02-14T08:12:01;102228.66;;;11.40;100.00
36726;BME280;44936;52.086;5.150;2024-02-14T08:14:27;102249.75;;;11.44;100.00
36726;BME280;44936;52.086;5.150;2024-02-14T08:16:52;102224.28;;;11.40;100.00
36726;BME280;44936;52.086;5.150;2024-02-14T08:19:17;102222.34;;;11.31;100.00
36726;BME280;44936;52.086;5.150;2024-02-14T08:21:44;102256.03;;;11.49;100.00
36726;BME280;44936;52.086;5.150;2024-02-14T08:24:09;102225.91;;;11.35;100.00
36726;BME280;44936;52.086;5.150;2024-02-14T08:26:35;102265.91;;;11.61;100.00
36726;BME280;44936;52.086;5.150;2024-02-14T08:29:00;102256.06;;;11.52;100.00
36726;BME280;44936;52.086;5.150;2024-02-14T08:31:25;102257.09;;;11.59;100.00
36726;BME280;44936;52.086;5.150;2024-02-14T08:33:51;102253.38;;;11.49;100.00
36726;BME280;44936;52.086;5.150;2024-02-14T08:36:16;102220.50;;;11.27;100.00
36726;BME280;44936;52.086;5.150;2024-02-14T08:38:44;102236.63;;;11.44;100.00
36726;BME280;44936;52.086;5.150;2024-02-14T08:41:09;102241.13;;;11.50;100.00
36726;BME280;44936;52.086;5.150;2024-02-14T08:43:35;102260.59;;;11.58;100.00
36726;BME280;44936;52.086;5.150;2024-02-14T08:46:00;102271.19;;;11.62;100.00
36726;BME280;44936;52.086;5.150;2024-02-14T08:48:26;102226.25;;;11.50;100.00
36726;BME280;44936;52.086;5.150;2024-02-14T08:50:52;102270.97;;;11.53;100.00
36726;BME280;44936;52.086;5.150;2024-02-14T08:53:18;102236.63;;;11.44;100.00
36726;BME280;44936;52.086;5.150;2024-02-14T08:55:43;102239.25;;;11.44;100.00
36726;BME280;44936;52.086;5.150;2024-02-14T08:58:09;102257.69;;;11.47;100.00
36726;BME280;44936;52.086;5.150;2024-02-14T09:00:37;102248.06;;;11.48;100.00
36726;BME280;44936;52.086;5.150;2024-02-14T09:03:04;102258.00;;;11.59;100.00
36726;BME280;44936;52.086;5.150;2024-02-14T09:05:30;102268.22;;;11.47;100.00
36726;BME280;44936;52.086;5.150;2024-02-14T09:07:55;102291.28;;;11.60;100.00
36726;BME280;44936;52.086;5.150;2024-02-14T09:10:21;102289.53;;;11.59;100.00
36726;BME280;44936;52.086;5.150;2024-02-14T09:12:47;102276.25;;;11.53;100.00
36726;BME280;44936;52.086;5.150;2024-02-14T09:15:13;102271.91;;;11.55;100.00
36726;BME280;44936;52.086;5.150;2024-02-14T09:17:38;102275.47;;;11.57;100.00
36726;BME280;44936;52.086;5.150;2024-02-14T09:20:06;102283.56;;;11.68;100.00
36726;BME280;44936;52.086;5.150;2024-02-14T09:22:35;102289.72;;;11.69;100.00
36726;BME280;44936;52.086;5.150;2024-02-14T09:25:01;102279.06;;;11.62;100.00
36726;BME280;44936;52.086;5.150;2024-02-14T09:27:29;102248.06;;;11.48;100.00
36726;BME280;44936;52.086;5.150;2024-02-14T09:29:55;102251.94;;;11.63;100.00
36726;BME280;44936;52.086;5.150;2024-02-14T09:32:20;102258.59;;;11.48;100.00
36726;BME280;44936;52.086;5.150;2024-02-14T09:34:45;102296.81;;;11.73;100.00
36726;BME280;44936;52.086;5.150;2024-02-14T09:37:11;102262.41;;;11.62;100.00
36726;BME280;44936;52.086;5.150;2024-02-14T09:39:36;102236.13;;;11.62;100.00
36726;BME280;44936;52.086;5.150;2024-02-14T09:42:08;102254.63;;;11.67;100.00
36726;BME280;44936;52.086;5.150;2024-02-14T09:44:35;102294.41;;;11.82;100.00
36726;BME280;44936;52.086;5.150;2024-02-14T09:47:01;102287.19;;;11.75;100.00
36726;BME280;44936;52.086;5.150;2024-02-14T09:49:29;102270.59;;;11.76;100.00
36726;BME280;44936;52.086;5.150;2024-02-14T09:51:55;102288.38;;;11.86;100.00
36726;BME280;44936;52.086;5.150;2024-02-14T09:54:22;102296.16;;;11.81;100.00
36726;BME280;44936;52.086;5.150;2024-02-14T09:56:50;102266.91;;;11.66;100.00
36726;BME280;44936;52.086;5.150;2024-02-14T09:59:21;102298.81;;;11.83;100.00
36726;BME280;44936;52.086;5.150;2024-02-14T10:01:46;102313.53;;;11.76;100.00
36726;BME280;44936;52.086;5.150;2024-02-14T10:04:14;102306.69;;;11.83;100.00
36726;BME280;44936;52.086;5.150;2024-02-14T10:06:40;102307.63;;;11.85;100.00
36726;BME280;44936;52.086;5.150;2024-02-14T10:09:05;102266.03;;;11.67;100.00
36726;BME280;44936;52.086;5.150;2024-02-14T10:11:31;102288.38;;;11.86;100.00
36726;BME280;44936;52.086;5.150;2024-02-14T10:13:57;102295.44;;;11.88;100.00
36726;BME280;44936;52.086;5.150;2024-02-14T10:16:28;102266.16;;;11.73;100.00
36726;BME280;44936;52.086;5.150;2024-02-14T10:18:54;102294.69;;;11.94;100.00
36726;BME280;44936;52.086;5.150;2024-02-14T10:21:19;102275.03;;;11.78;100.00
36726;BME280;44936;52.086;5.150;2024-02-14T10:23:45;102291.09;;;11.92;100.00
36726;BME280;44936;52.086;5.150;2024-02-14T10:26:13;102274.00;;;11.72;100.00
36726;BME280;44936;52.086;5.150;2024-02-14T10:28:45;102282.97;;;11.80;100.00
36726;BME280;44936;52.086;5.150;2024-02-14T10:31:11;102311.56;;;12.05;100.00
36726;BME280;44936;52.086;5.150;2024-02-14T10:33:36;102303.88;;;12.16;100.00
36726;BME280;44936;52.086;5.150;2024-02-14T10:36:03;102299.63;;;12.23;100.00
36726;BME280;44936;52.086;5.150;2024-02-14T10:38:32;102317.00;;;12.14;100.00
36726;BME280;44936;52.086;5.150;2024-02-14T10:40:59;102296.09;;;12.21;100.00
36726;BME280;44936;52.086;5.150;2024-02-14T10:43:25;102305.00;;;12.29;100.00
36726;BME280;44936;52.086;5.150;2024-02-14T10:45:52;102307.56;;;12.26;100.00
36726;BME280;44936;52.086;5.150;2024-02-14T10:48:22;102282.22;;;12.29;100.00
36726;BME280;44936;52.086;5.150;2024-02-14T10:50:50;102299.69;;;12.27;100.00
36726;BME280;44936;52.086;5.150;2024-02-14T10:53:18;102314.88;;;12.40;100.00
36726;BME280;44936;52.086;5.150;2024-02-14T10:55:49;102315.72;;;12.38;100.00
36726;BME280;44936;52.086;5.150;2024-02-14T10:58:17;102308.03;;;12.50;100.00
36726;BME280;44936;52.086;5.150;2024-02-14T11:00:44;102287.56;;;12.34;100.00
36726;BME280;44936;52.086;5.150;2024-02-14T11:03:10;102298.09;;;12.35;100.00
36726;BME280;44936;52.086;5.150;2024-02-14T11:05:46;102308.56;;;12.31;100.00
36726;BME280;44936;52.086;5.150;2024-02-14T11:08:29;102253.66;;;12.04;100.00
36726;BME280;44936;52.086;5.150;2024-02-14T11:10:59;102276.13;;;12.32;100.00
36726;BME280;44936;52.086;5.150;2024-02-14T11:13:28;102295.72;;;12.47;100.00
36726;BME280;44936;52.086;5.150;2024-02-14T11:15:56;102290.47;;;12.49;100.00
36726;BME280;44936;52.086;5.150;2024-02-14T11:18:25;102298.66;;;12.64;100.00
36726;BME280;44936;52.086;5.150;2024-02-14T11:20:51;102295.03;;;12.59;100.00
36726;BME280;44936;52.086;5.150;2024-02-14T11:23:22;102289.00;;;12.65;100.00
36726;BME280;44936;52.086;5.150;2024-02-14T11:25:47;102280.06;;;12.55;100.00
36726;BME280;44936;52.086;5.150;2024-02-14T11:28:23;102281.00;;;12.59;100.00
36726;BME280;44936;52.086;5.150;2024-02-14T11:30:49;102271.31;;;12.56;100.00
36726;BME280;44936;52.086;5.150;2024-02-14T11:35:43;102281.84;;;12.56;100.00
36726;BME280;44936;52.086;5.150;2024-02-14T11:38:09;102289.72;;;12.56;100.00
36726;BME280;44936;52.086;5.150;2024-02-14T11:40:35;102280.81;;;12.48;100.00
36726;BME280;44936;52.086;5.150;2024-02-14T11:43:01;102274.00;;;12.61;100.00
36726;BME280;44936;52.086;5.150;2024-02-14T11:45:29;102281.25;;;12.72;100.00
36726;BME280;44936;52.086;5.150;2024-02-14T11:47:55;102276.00;;;12.72;100.00
36726;BME280;44936;52.086;5.150;2024-02-14T11:50:21;102272.19;;;12.57;100.00
36726;BME280;44936;52.086;5.150;2024-02-14T11:52:46;102276.66;;;12.62;100.00
36726;BME280;44936;52.086;5.150;2024-02-14T11:55:12;102286.44;;;12.69;100.00
36726;BME280;44936;52.086;5.150;2024-02-14T11:57:40;102244.16;;;12.59;100.00
36726;BME280;44936;52.086;5.150;2024-02-14T12:00:07;102260.06;;;12.65;100.00
36726;BME280;44936;52.086;5.150;2024-02-14T12:02:33;102269.56;;;12.57;100.00
36726;BME280;44936;52.086;5.150;2024-02-14T12:04:59;102252.81;;;12.53;100.00
36726;BME280;44936;52.086;5.150;2024-02-14T12:07:25;102264.63;;;12.75;100.00
36726;BME280;44936;52.086;5.150;2024-02-14T12:09:51;102262.81;;;12.72;100.00
36726;BME280;44936;52.086;5.150;2024-02-14T12:12:16;102260.97;;;12.68;100.00
36726;BME280;44936;52.086;5.150;2024-02-14T12:14:44;102253.06;;;12.67;100.00
36726;BME280;44936;52.086;5.150;2024-02-14T12:17:16;102266.22;;;12.67;100.00
36726;BME280;44936;52.086;5.150;2024-02-14T12:19:43;102276.88;;;12.74;100.00
36726;BME280;44936;52.086;5.150;2024-02-14T12:22:12;102272.34;;;12.64;100.00
36726;BME280;44936;52.086;5.150;2024-02-14T12:24:43;102284.69;;;12.70;100.00
36726;BME280;44936;52.086;5.150;2024-02-14T12:27:09;102279.44;;;12.70;100.00
36726;BME280;44936;52.086;5.150;2024-02-14T12:29:35;102272.66;;;12.83;100.00
36726;BME280;44936;52.086;5.150;2024-02-14T12:32:07;102262.00;;;12.76;100.00
36726;BME280;44936;52.086;5.150;2024-02-14T12:34:33;102276.78;;;12.68;100.00
36726;BME280;44936;52.086;5.150;2024-02-14T12:36:59;102270.44;;;12.57;100.00